Time;durP1;ratioP1;P1;durP2;ratioP2;P2;SDS_P1;SDS_P2;PMS_P1;PMS_P2;Temp;Humidity;BMP_temperature;BMP_pressure;BME280_temperature;BME280_humidity;BME280_pressure;Samples;Min_cycle;Max_cycle;Signal;HPM_P1;HPM_P2
2021/04/12 00:00:11;;;;;;;4.77;2.60;;;4.30;99.90;;;;;;5076211;28;20420;-79
2021/04/12 00:02:47;;;;;;;4.77;2.40;;;4.30;99.90;;;;;;5068176;28;20477;-79
2021/04/12 00:05:17;;;;;;;8.47;2.30;;;4.20;99.90;;;;;;5080243;28;20420;-77
2021/04/12 00:07:58;;;;;;;3.47;2.17;;;4.20;99.90;;;;;;5092089;28;20815;-79
2021/04/12 00:10:59;;;;;;;5.27;2.33;;;4.20;99.90;;;;;;5082523;28;20436;-79
2021/04/12 00:14:02;;;;;;;2.53;2.23;;;4.20;99.90;;;;;;5092421;28;20483;-79
2021/04/12 00:16:40;;;;;;;13.47;3.10;;;4.20;99.90;;;;;;5072808;28;20412;-80
2021/04/12 00:19:14;;;;;;;6.00;2.80;;;4.30;99.90;;;;;;5067660;28;20442;-78
2021/04/12 00:21:42;;;;;;;5.63;2.70;;;4.30;99.90;;;;;;5075247;28;20530;-79
2021/04/12 00:24:22;;;;;;;6.10;3.30;;;4.30;99.90;;;;;;5079758;28;20429;-79
2021/04/12 00:27:02;;;;;;;3.93;2.80;;;4.20;99.90;;;;;;5054220;28;20409;-78
2021/04/12 00:29:46;;;;;;;7.43;2.77;;;4.20;99.90;;;;;;5056619;28;20409;-79
2021/04/12 00:32:33;;;;;;;5.47;2.90;;;4.20;99.90;;;;;;5072760;28;20424;-79
2021/04/12 00:35:08;;;;;;;6.17;2.67;;;4.20;99.90;;;;;;5080225;28;20448;-79
2021/04/12 00:37:50;;;;;;;5.63;3.03;;;4.20;99.90;;;;;;5063721;28;20416;-79
2021/04/12 00:40:54;;;;;;;9.33;2.80;;;4.10;99.90;;;;;;5088621;28;20442;-80
2021/04/12 00:43:42;;;;;;;4.53;2.73;;;4.10;99.90;;;;;;5074076;28;20414;-80
2021/04/12 00:46:26;;;;;;;5.00;3.60;;;4.10;99.90;;;;;;5074333;28;20958;-79
2021/04/12 00:49:03;;;;;;;5.10;3.07;;;4.10;99.90;;;;;;5074988;28;21187;-80
2021/04/12 00:51:35;;;;;;;6.97;3.60;;;4.10;99.90;;;;;;5084254;28;20442;-80
2021/04/12 00:54:12;;;;;;;3.57;2.90;;;4.10;99.90;;;;;;5079215;28;20429;-79
2021/04/12 00:57:02;;;;;;;2.80;2.60;;;4.10;99.90;;;;;;5074100;28;20416;-80
2021/04/12 00:59:28;;;;;;;6.37;3.50;;;4.10;99.90;;;;;;5073613;28;20492;-77
2021/04/12 01:02:13;;;;;;;8.63;3.40;;;4.10;99.90;;;;;;5075614;28;20490;-79
2021/04/12 01:05:04;;;;;;;5.37;3.80;;;4.10;99.90;;;;;;5079583;28;20256;-80
2021/04/12 01:07:30;;;;;;;13.37;3.90;;;4.00;99.90;;;;;;5083226;28;20454;-79
2021/04/12 01:10:10;;;;;;;4.93;3.50;;;4.10;99.90;;;;;;5083707;28;20420;-79
2021/04/12 01:13:07;;;;;;;2.73;2.33;;;4.00;99.90;;;;;;5074883;28;20174;-79
2021/04/12 01:15:54;;;;;;;13.27;3.60;;;4.00;99.90;;;;;;5064736;28;20467;-79
2021/04/12 01:18:49;;;;;;;5.37;3.63;;;4.00;99.90;;;;;;5074776;28;20416;-80
2021/04/12 01:21:41;;;;;;;9.30;3.77;;;4.00;99.90;;;;;;5076742;28;20458;-79
2021/04/12 01:24:21;;;;;;;8.77;4.30;;;4.00;99.90;;;;;;5086063;28;20415;-79
2021/04/12 01:27:05;;;;;;;8.17;4.40;;;4.00;99.90;;;;;;5097483;28;20498;-77
2021/04/12 01:30:24;;;;;;;10.03;3.67;;;4.00;99.90;;;;;;5097235;28;20427;-80
2021/04/12 01:33:08;;;;;;;7.23;3.17;;;4.00;99.90;;;;;;5075880;28;20487;-79
2021/04/12 01:35:35;;;;;;;4.40;3.47;;;4.00;99.90;;;;;;5057495;28;20411;-79
2021/04/12 01:38:22;;;;;;;5.57;3.90;;;3.90;99.90;;;;;;5074226;28;20445;-78
2021/04/12 01:41:11;;;;;;;7.37;4.70;;;4.00;99.90;;;;;;5091913;28;20505;-79
2021/04/12 01:44:05;;;;;;;7.27;3.83;;;4.00;99.90;;;;;;5064628;28;20433;-79
2021/04/12 01:46:41;;;;;;;11.87;5.43;;;4.00;99.90;;;;;;5074802;28;20871;-79
2021/04/12 01:49:16;;;;;;;8.03;4.70;;;4.00;99.90;;;;;;5076422;28;20463;-79
2021/04/12 01:52:10;;;;;;;7.30;4.53;;;4.00;99.90;;;;;;5076773;28;20455;-78
2021/04/12 01:54:45;;;;;;;9.30;4.53;;;4.00;99.90;;;;;;5093309;28;20783;-77
2021/04/12 01:57:42;;;;;;;10.33;5.67;;;3.90;99.90;;;;;;5089798;28;20417;-79
2021/04/12 02:00:32;;;;;;;11.70;8.23;;;3.80;99.90;;;;;;5072952;28;20420;-78
2021/04/12 02:03:06;;;;;;;10.20;5.87;;;3.80;99.90;;;;;;5063708;28;20865;-77
2021/04/12 02:05:55;;;;;;;5.67;4.83;;;3.80;99.90;;;;;;5069920;28;20425;-79
2021/04/12 02:08:33;;;;;;;9.50;5.07;;;3.70;99.90;;;;;;5073804;28;20452;-79
2021/04/12 02:11:32;;;;;;;12.23;4.80;;;3.80;99.90;;;;;;5077342;28;20431;-79
2021/04/12 02:14:22;;;;;;;9.17;5.57;;;3.70;99.90;;;;;;5072756;28;20506;-78
2021/04/12 02:17:14;;;;;;;8.33;5.57;;;3.70;99.90;;;;;;5061515;28;20520;-77
2021/04/12 02:19:53;;;;;;;10.50;6.20;;;3.70;99.90;;;;;;5063437;28;20986;-78
2021/04/12 02:22:40;;;;;;;6.63;5.93;;;3.70;99.90;;;;;;5075535;28;20445;-80
2021/04/12 02:25:24;;;;;;;7.87;5.70;;;3.60;99.90;;;;;;5075937;28;20451;-79
2021/04/12 02:28:11;;;;;;;9.13;6.70;;;3.60;99.90;;;;;;5093505;28;20459;-80
2021/04/12 02:31:06;;;;;;;8.20;6.47;;;3.60;99.90;;;;;;5086127;28;20881;-78
2021/04/12 02:33:45;;;;;;;16.10;7.20;;;3.60;99.90;;;;;;5079751;28;20506;-79
2021/04/12 02:36:22;;;;;;;8.47;5.87;;;3.60;99.90;;;;;;5092753;28;20415;-78
2021/04/12 02:39:01;;;;;;;10.30;7.13;;;3.70;99.90;;;;;;5095521;28;20521;-79
2021/04/12 02:41:33;;;;;;;9.00;6.50;;;3.60;99.90;;;;;;5095164;28;20439;-79
2021/04/12 02:44:17;;;;;;;14.07;6.00;;;3.70;99.90;;;;;;5081035;28;20465;-77
2021/04/12 02:47:15;;;;;;;9.20;5.50;;;3.60;99.90;;;;;;5068939;28;20420;-78
2021/04/12 02:50:04;;;;;;;8.87;5.13;;;3.60;99.90;;;;;;5089137;28;20765;-79
2021/04/12 02:53:03;;;;;;;8.00;5.23;;;3.70;99.90;;;;;;5083301;28;20435;-78
2021/04/12 02:55:58;;;;;;;9.43;4.80;;;3.60;99.90;;;;;;5095387;28;20415;-78
2021/04/12 02:58:31;;;;;;;6.53;4.90;;;3.60;99.90;;;;;;5092923;28;20403;-79
2021/04/12 03:01:47;;;;;;;12.13;6.43;;;3.50;99.90;;;;;;5094528;28;20501;-79
2021/04/12 03:04:21;;;;;;;5.60;4.60;;;3.50;99.90;;;;;;5043402;28;20428;-79
2021/04/12 03:07:20;;;;;;;9.23;4.70;;;3.50;99.90;;;;;;5095080;28;20460;-78
2021/04/12 03:10:28;;;;;;;6.00;4.40;;;3.40;99.90;;;;;;5074946;28;20957;-78
2021/04/12 03:12:59;;;;;;;8.37;5.80;;;3.50;99.90;;;;;;5034498;28;20447;-77
2021/04/12 03:16:02;;;;;;;12.33;7.13;;;3.30;99.90;;;;;;5090010;28;20421;-79
2021/04/12 03:19:03;;;;;;;11.77;7.20;;;3.40;99.90;;;;;;5074515;28;20965;-79
2021/04/12 03:21:47;;;;;;;4.77;4.23;;;3.50;99.90;;;;;;4994232;28;20479;-79
2021/04/12 03:24:35;;;;;;;5.67;4.13;;;3.50;99.90;;;;;;5067636;28;20422;-79
2021/04/12 03:27:30;;;;;;;6.60;4.07;;;3.50;99.90;;;;;;5087613;28;20413;-79
2021/04/12 03:30:34;;;;;;;5.37;3.90;;;3.50;99.90;;;;;;5055063;28;20420;-79
2021/04/12 03:33:26;;;;;;;9.93;4.43;;;3.40;99.90;;;;;;5056891;28;20417;-78
2021/04/12 03:36:19;;;;;;;3.47;3.17;;;3.30;99.90;;;;;;5078388;28;20423;-78
2021/04/12 03:39:07;;;;;;;6.10;3.37;;;3.30;99.90;;;;;;5072596;28;20405;-79
2021/04/12 03:41:54;;;;;;;10.63;3.83;;;3.20;99.90;;;;;;5084016;28;20472;-77
2021/04/12 03:44:30;;;;;;;5.33;4.20;;;3.20;99.90;;;;;;5072320;28;20419;-78
2021/04/12 03:47:02;;;;;;;8.27;4.30;;;3.20;99.90;;;;;;5077005;28;20438;-78
2021/04/12 03:49:46;;;;;;;6.93;3.80;;;3.20;99.90;;;;;;5087125;28;20479;-78
2021/04/12 03:52:18;;;;;;;4.30;3.50;;;3.20;99.90;;;;;;5072959;28;20424;-77
2021/04/12 03:55:01;;;;;;;4.53;3.97;;;3.20;99.90;;;;;;5074257;28;20428;-78
2021/04/12 03:58:12;;;;;;;9.43;4.90;;;3.20;99.90;;;;;;5093933;28;20447;-77
2021/04/12 04:01:14;;;;;;;4.60;3.50;;;3.20;99.90;;;;;;5080714;28;21015;-78
2021/04/12 04:03:45;;;;;;;4.33;3.93;;;3.20;99.90;;;;;;5086509;28;20458;-77
2021/04/12 04:06:20;;;;;;;7.70;3.80;;;3.10;99.90;;;;;;5088568;28;20427;-77
2021/04/12 04:09:04;;;;;;;5.83;4.70;;;3.10;99.90;;;;;;5073326;28;20465;-77
2021/04/12 04:11:33;;;;;;;8.03;5.30;;;3.20;99.90;;;;;;5071066;28;20470;-78
2021/04/12 04:14:04;;;;;;;6.70;4.57;;;3.10;99.90;;;;;;5074685;28;20870;-78
2021/04/12 04:16:51;;;;;;;5.80;4.20;;;3.00;99.90;;;;;;5070515;28;20764;-78
2021/04/12 04:19:44;;;;;;;8.03;3.73;;;3.00;99.90;;;;;;5065314;28;20427;-78
2021/04/12 04:22:51;;;;;;;7.27;4.03;;;3.00;99.90;;;;;;5071265;28;20436;-77
2021/04/12 04:25:19;;;;;;;11.30;4.53;;;3.00;99.90;;;;;;5072439;28;20480;-77
2021/04/12 04:28:00;;;;;;;7.90;5.33;;;3.00;99.90;;;;;;5071625;28;20483;-77
2021/04/12 04:30:53;;;;;;;11.53;4.40;;;3.00;99.90;;;;;;5073050;28;20451;-78
2021/04/12 04:33:21;;;;;;;9.00;4.57;;;3.00;99.90;;;;;;5075238;28;20428;-78
2021/04/12 04:36:22;;;;;;;6.63;4.63;;;2.90;99.90;;;;;;5084044;28;20982;-77
2021/04/12 04:39:13;;;;;;;6.90;5.63;;;2.90;99.90;;;;;;5073205;28;20425;-77
2021/04/12 04:41:50;;;;;;;5.97;4.70;;;2.90;99.90;;;;;;5075806;28;20976;-77
2021/04/12 04:44:34;;;;;;;6.90;4.80;;;2.90;99.90;;;;;;5074717;28;20920;-77
2021/04/12 04:47:11;;;;;;;7.70;5.80;;;2.90;99.90;;;;;;5071277;28;20439;-79
2021/04/12 04:49:55;;;;;;;7.70;6.80;;;2.80;99.90;;;;;;5071225;28;20431;-78
2021/04/12 04:52:52;;;;;;;11.50;5.60;;;2.90;99.90;;;;;;5076593;28;20819;-78
2021/04/12 04:55:28;;;;;;;13.70;6.80;;;2.90;99.90;;;;;;5049777;28;20489;-77
2021/04/12 04:58:22;;;;;;;20.43;12.53;;;2.90;99.90;;;;;;5086135;28;20432;-76
2021/04/12 05:01:25;;;;;;;15.63;9.33;;;2.80;99.90;;;;;;5075493;28;20497;-78
2021/04/12 05:04:15;;;;;;;7.93;6.13;;;2.90;99.90;;;;;;5094140;28;20509;-77
2021/04/12 05:07:08;;;;;;;9.70;6.73;;;2.80;99.90;;;;;;5095553;28;20892;-78
2021/04/12 05:10:03;;;;;;;8.83;7.10;;;2.80;99.90;;;;;;5093384;28;20446;-78
2021/04/12 05:12:41;;;;;;;8.60;6.67;;;2.90;99.90;;;;;;5055254;28;20425;-78
2021/04/12 05:15:20;;;;;;;12.53;8.87;;;2.90;99.90;;;;;;5077274;28;20408;-78
2021/04/12 05:18:23;;;;;;;14.43;8.13;;;2.90;99.90;;;;;;5081751;28;20422;-79
2021/04/12 05:21:26;;;;;;;11.33;8.73;;;2.90;99.90;;;;;;5075806;28;20500;-78
2021/04/12 05:24:10;;;;;;;9.53;7.63;;;2.90;99.90;;;;;;5068587;28;20435;-79
2021/04/12 05:26:43;;;;;;;7.57;6.70;;;3.00;99.90;;;;;;5056877;28;20416;-78
2021/04/12 05:29:42;;;;;;;10.70;8.17;;;3.00;99.90;;;;;;5054515;28;20861;-78
2021/04/12 05:32:43;;;;;;;11.67;7.40;;;3.10;99.90;;;;;;5074686;28;20482;-78
2021/04/12 05:35:43;;;;;;;7.57;6.80;;;3.20;99.90;;;;;;5083506;28;20453;-77
2021/04/12 05:38:46;;;;;;;9.97;7.00;;;3.50;99.90;;;;;;5075593;28;20412;-78
2021/04/12 05:41:32;;;;;;;8.30;7.33;;;4.10;99.90;;;;;;4989737;28;20471;-78
2021/04/12 05:44:35;;;;;;;12.27;6.60;;;4.70;99.90;;;;;;5061283;28;20423;-79
2021/04/12 05:47:28;;;;;;;8.90;5.87;;;5.40;99.90;;;;;;5077338;28;20458;-79
2021/04/12 05:50:13;;;;;;;8.60;6.40;;;5.80;99.90;;;;;;5064020;28;20428;-78
2021/04/12 05:53:09;;;;;;;8.70;6.57;;;6.50;99.90;;;;;;5053156;28;20429;-78
2021/04/12 05:55:52;;;;;;;8.10;6.80;;;7.20;99.90;;;;;;5060407;28;20424;-78
2021/04/12 05:58:24;;;;;;;7.53;6.43;;;7.60;99.90;;;;;;5094561;28;20469;-77
2021/04/12 06:01:10;;;;;;;11.30;6.03;;;7.30;99.90;;;;;;5089573;28;20789;-78
2021/04/12 06:04:12;;;;;;;9.73;6.90;;;7.70;99.90;;;;;;5088954;28;20424;-78
2021/04/12 06:07:01;;;;;;;9.20;6.83;;;8.00;99.90;;;;;;5085445;28;20780;-78
2021/04/12 06:09:36;;;;;;;7.93;6.87;;;8.10;99.90;;;;;;5075236;28;20538;-79
2021/04/12 06:12:19;;;;;;;11.10;7.03;;;6.90;99.90;;;;;;5073975;28;20436;-79
2021/04/12 06:15:03;;;;;;;13.23;9.40;;;6.90;99.90;;;;;;5084707;28;20454;-79
2021/04/12 06:17:50;;;;;;;12.83;6.93;;;6.40;99.90;;;;;;5089196;28;20645;-80
2021/04/12 06:20:53;;;;;;;14.47;8.93;;;6.20;99.90;;;;;;5073556;28;20418;-78
2021/04/12 06:23:36;;;;;;;9.40;7.90;;;5.70;99.90;;;;;;5076552;28;20447;-79
2021/04/12 06:26:26;;;;;;;15.60;9.00;;;5.40;99.90;;;;;;5060929;28;20835;-78
2021/04/12 06:29:13;;;;;;;9.90;7.77;;;5.50;99.90;;;;;;5057531;28;20457;-79
2021/04/12 06:31:59;;;;;;;11.53;8.47;;;5.50;99.90;;;;;;5077495;28;20445;-79
2021/04/12 06:35:08;;;;;;;15.33;8.97;;;5.30;99.90;;;;;;5033444;28;20424;-79
2021/04/12 06:37:39;;;;;;;11.13;7.90;;;5.00;99.90;;;;;;5034342;28;20435;-78
2021/04/12 06:40:39;;;;;;;8.73;7.10;;;4.90;99.90;;;;;;5062077;28;20429;-77
2021/04/12 06:43:38;;;;;;;11.23;8.70;;;4.80;99.90;;;;;;5071162;28;20477;-77
2021/04/12 06:46:28;;;;;;;13.20;8.73;;;4.60;99.90;;;;;;5056145;28;20459;-78
2021/04/12 06:49:14;;;;;;;11.30;9.07;;;4.70;99.90;;;;;;5054581;28;20506;-78
2021/04/12 06:52:01;;;;;;;9.87;8.87;;;4.60;99.90;;;;;;5066017;28;20852;-78
2021/04/12 06:54:42;;;;;;;9.70;8.63;;;4.60;99.90;;;;;;5073916;28;20920;-78
2021/04/12 06:57:36;;;;;;;14.87;9.87;;;4.60;99.90;;;;;;5072452;28;20415;-77
2021/04/12 07:00:39;;;;;;;14.50;9.60;;;4.70;99.90;;;;;;5091317;28;20416;-79
2021/04/12 07:03:10;;;;;;;17.03;9.10;;;4.50;99.90;;;;;;5074040;28;20423;-79
2021/04/12 07:06:03;;;;;;;11.27;9.00;;;4.30;99.90;;;;;;5083306;28;20414;-77
2021/04/12 07:08:53;;;;;;;11.80;9.57;;;4.20;99.90;;;;;;5054633;28;20441;-78
2021/04/12 07:11:41;;;;;;;10.90;8.67;;;4.20;99.90;;;;;;5067761;28;20448;-79
2021/04/12 07:14:44;;;;;;;15.43;10.20;;;4.20;99.90;;;;;;5072672;28;20422;-78
2021/04/12 07:17:41;;;;;;;12.70;9.40;;;4.30;99.90;;;;;;5068350;28;20405;-79
2021/04/12 07:20:43;;;;;;;11.63;8.90;;;4.40;99.90;;;;;;5056431;28;20412;-78
2021/04/12 07:23:46;;;;;;;14.53;8.57;;;4.50;99.90;;;;;;5072815;28;20399;-78
2021/04/12 07:26:36;;;;;;;11.90;9.50;;;4.70;99.90;;;;;;5072375;28;20485;-79
2021/04/12 07:29:22;;;;;;;15.53;9.47;;;4.90;99.90;;;;;;5071399;28;20778;-79
2021/04/12 07:31:58;;;;;;;16.50;10.23;;;5.10;99.90;;;;;;5095872;28;20477;-79
2021/04/12 07:34:51;;;;;;;10.27;9.27;;;5.30;99.90;;;;;;5091314;28;20447;-79
2021/04/12 07:37:45;;;;;;;12.33;10.20;;;5.40;99.90;;;;;;5094517;28;20510;-80
2021/04/12 07:40:29;;;;;;;14.03;11.00;;;5.80;99.90;;;;;;5091769;28;20817;-80
2021/04/12 07:43:30;;;;;;;11.50;9.83;;;6.10;99.90;;;;;;5068569;28;20485;-78
2021/04/12 07:46:13;;;;;;;11.77;9.50;;;6.20;99.90;;;;;;5054452;28;20452;-79
2021/04/12 07:49:01;;;;;;;10.80;9.70;;;6.10;99.90;;;;;;5066806;28;20444;-80
2021/04/12 07:51:46;;;;;;;19.13;10.80;;;5.90;99.90;;;;;;5073662;28;21065;-80
2021/04/12 07:54:36;;;;;;;14.83;10.33;;;5.90;99.90;;;;;;5079075;28;20470;-80
2021/04/12 07:57:07;;;;;;;10.97;9.87;;;6.00;99.90;;;;;;5055182;28;20500;-80
2021/04/12 08:00:15;;;;;;;10.07;8.67;;;5.90;99.90;;;;;;5054748;28;20409;-80
2021/04/12 08:02:55;;;;;;;9.80;8.90;;;5.80;99.90;;;;;;5051891;28;20420;-79
2021/04/12 08:05:41;;;;;;;13.30;9.10;;;5.70;99.90;;;;;;5066262;28;20419;-78
2021/04/12 08:08:42;;;;;;;11.47;10.20;;;5.80;99.90;;;;;;5071988;28;20456;-80
2021/04/12 08:11:17;;;;;;;10.60;9.13;;;5.80;99.90;;;;;;5019685;28;20944;-80
2021/04/12 08:14:33;;;;;;;12.70;10.90;;;5.80;99.90;;;;;;5093772;28;20948;-80
2021/04/12 08:17:38;;;;;;;10.67;9.40;;;5.90;99.90;;;;;;5086088;28;20428;-79
2021/04/12 08:20:25;;;;;;;11.33;9.20;;;5.90;99.90;;;;;;5088864;28;20838;-80
2021/04/12 08:23:35;;;;;;;11.60;10.50;;;5.50;99.90;;;;;;5087708;28;20439;-80
2021/04/12 08:26:04;;;;;;;12.50;10.70;;;5.20;99.90;;;;;;5050849;28;20934;-80
2021/04/12 08:29:17;;;;;;;13.90;12.40;;;4.90;99.90;;;;;;5052052;28;20449;-80
2021/04/12 08:32:04;;;;;;;12.77;11.40;;;4.90;99.90;;;;;;5076236;28;20788;-80
2021/04/12 08:34:51;;;;;;;13.00;11.13;;;4.90;99.90;;;;;;5075810;28;20456;-79
2021/04/12 08:37:36;;;;;;;12.67;10.80;;;5.00;99.90;;;;;;5055554;28;20420;-79
2021/04/12 08:40:22;;;;;;;10.10;9.03;;;5.10;99.90;;;;;;5057170;28;20439;-79
2021/04/12 08:43:15;;;;;;;11.33;10.17;;;5.50;99.90;;;;;;5055185;28;20409;-78
2021/04/12 08:46:10;;;;;;;11.73;10.57;;;5.80;99.90;;;;;;5056638;28;20490;-77
2021/04/12 08:48:45;;;;;;;11.53;10.07;;;6.10;99.90;;;;;;5077767;28;20478;-79
2021/04/12 08:51:38;;;;;;;12.20;10.07;;;6.50;99.90;;;;;;5073819;28;20455;-80
2021/04/12 08:54:07;;;;;;;12.13;10.47;;;6.90;99.90;;;;;;5056523;28;20539;-77
2021/04/12 08:56:47;;;;;;;11.60;10.07;;;7.20;99.90;;;;;;5054569;28;20417;-75
2021/04/12 08:59:42;;;;;;;11.07;9.93;;;7.50;99.90;;;;;;5055988;28;20504;-79
2021/04/12 09:02:45;;;;;;;12.70;10.03;;;7.30;99.90;;;;;;5054386;28;20425;-79
2021/04/12 09:05:38;;;;;;;10.10;9.10;;;7.60;99.90;;;;;;5075975;28;20416;-77
2021/04/12 09:08:43;;;;;;;12.40;10.50;;;8.10;99.90;;;;;;5055054;28;21011;-77
2021/04/12 09:11:24;;;;;;;13.03;10.50;;;8.20;99.90;;;;;;5071675;28;20444;-77
2021/04/12 09:13:49;;;;;;;20.03;10.90;;;8.40;99.90;;;;;;5065209;28;20507;-77
2021/04/12 09:16:28;;;;;;;12.77;11.53;;;8.40;99.90;;;;;;5066824;28;20502;-78
2021/04/12 09:19:35;;;;;;;12.40;11.10;;;8.00;99.90;;;;;;5081185;28;20205;-78
2021/04/12 09:22:48;;;;;;;12.57;10.50;;;8.40;99.90;;;;;;5092334;28;20443;-78
2021/04/12 09:25:53;;;;;;;11.33;9.40;;;8.60;99.90;;;;;;5076528;28;20465;-78
2021/04/12 09:28:56;;;;;;;11.40;9.00;;;8.80;99.90;;;;;;5076613;28;20509;-78
2021/04/12 09:31:43;;;;;;;10.23;9.20;;;9.50;99.90;;;;;;5072091;28;20452;-77
2021/04/12 09:34:43;;;;;;;8.43;7.50;;;10.10;99.90;;;;;;5081973;28;20923;-78
2021/04/12 09:37:42;;;;;;;7.33;6.40;;;10.60;99.90;;;;;;5049397;28;20562;-77
2021/04/12 09:40:26;;;;;;;7.37;6.00;;;10.80;99.90;;;;;;5077502;28;20932;-77
2021/04/12 09:43:21;;;;;;;7.00;6.27;;;11.00;99.90;;;;;;5077503;28;20430;-77
2021/04/12 09:46:24;;;;;;;8.30;4.57;;;11.60;99.90;;;;;;5069962;28;20534;-76
2021/04/12 09:49:33;;;;;;;5.83;5.23;;;12.50;99.90;;;;;;5072525;28;20506;-76
2021/04/12 09:52:33;;;;;;;5.33;4.93;;;13.60;99.90;;;;;;5078863;28;20840;-77
2021/04/12 09:55:12;;;;;;;4.30;4.00;;;13.90;99.90;;;;;;5078186;28;20425;-77
2021/04/12 09:58:02;;;;;;;10.37;7.37;;;13.50;99.90;;;;;;5091217;28;20411;-76
2021/04/12 10:01:04;;;;;;;8.30;7.60;;;12.10;99.90;;;;;;5089235;28;20821;-75
2021/04/12 10:03:53;;;;;;;8.00;7.13;;;11.80;99.90;;;;;;5082838;28;20420;-77
2021/04/12 10:06:50;;;;;;;8.47;6.57;;;12.20;99.90;;;;;;5075511;28;20831;-75
2021/04/12 10:09:37;;;;;;;6.57;5.30;;;13.00;99.90;;;;;;5061149;28;20786;-76
2021/04/12 10:12:23;;;;;;;6.70;5.80;;;13.60;99.90;;;;;;5080999;28;20979;-78
2021/04/12 10:14:51;;;;;;;13.30;11.90;;;12.50;99.90;;;;;;5077756;28;20486;-76
2021/04/12 10:17:29;;;;;;;4.60;3.50;;;13.10;99.90;;;;;;5076671;28;20419;-75
2021/04/12 10:20:00;;;;;;;8.43;6.20;;;13.70;99.90;;;;;;5090169;28;20481;-76
2021/04/12 10:22:42;;;;;;;6.50;5.90;;;13.30;99.90;;;;;;5072420;28;20448;-77
2021/04/12 10:25:18;;;;;;;7.00;5.80;;;12.00;99.90;;;;;;5083431;28;21040;-78
2021/04/12 10:27:48;;;;;;;7.73;5.83;;;11.50;99.90;;;;;;5074702;28;20447;-78
2021/04/12 10:30:27;;;;;;;6.27;5.73;;;11.90;99.90;;;;;;5075787;28;20428;-78
2021/04/12 10:32:59;;;;;;;6.53;5.93;;;11.20;99.90;;;;;;5077589;28;20518;-77
2021/04/12 10:35:40;;;;;;;6.53;4.60;;;10.80;99.90;;;;;;5066013;28;20424;-77
2021/04/12 10:38:13;;;;;;;9.73;7.13;;;11.20;99.90;;;;;;5071316;28;20425;-80
2021/04/12 10:41:41;;;;;;;6.93;6.07;;;10.60;99.90;;;;;;5062792;28;20463;-79
2021/04/12 10:44:29;;;;;;;4.10;3.67;;;10.40;99.90;;;;;;5035414;28;20441;-79
2021/04/12 10:47:14;;;;;;;4.07;3.60;;;10.30;99.90;;;;;;5073656;28;20436;-79
2021/04/12 10:49:45;;;;;;;7.30;4.53;;;10.40;99.90;;;;;;5056536;28;20460;-79
2021/04/12 10:52:15;;;;;;;4.10;3.70;;;10.00;99.90;;;;;;5078045;28;20498;-77
2021/04/12 10:54:59;;;;;;;5.23;3.50;;;10.70;99.90;;;;;;5071397;28;20495;-77
2021/04/12 10:57:25;;;;;;;5.03;3.60;;;11.30;99.90;;;;;;5071767;28;20432;-80
2021/04/12 11:00:19;;;;;;;3.60;2.70;;;11.40;99.90;;;;;;5077786;28;20423;-78
2021/04/12 11:03:06;;;;;;;3.97;2.10;;;11.70;99.90;;;;;;5058701;28;20165;-79
2021/04/12 11:05:33;;;;;;;4.03;3.03;;;11.20;99.90;;;;;;5079127;28;20432;-79
2021/04/12 11:08:11;;;;;;;3.67;1.77;;;10.20;99.90;;;;;;5071320;28;20466;-78
2021/04/12 11:11:10;;;;;;;2.70;2.37;;;10.20;99.90;;;;;;5075289;28;20451;-79
2021/04/12 11:13:46;;;;;;;2.53;1.43;;;9.80;99.90;;;;;;5070820;28;20428;-78
2021/04/12 11:16:32;;;;;;;2.40;1.87;;;9.60;99.90;;;;;;5083983;28;20476;-80
2021/04/12 11:19:52;;;;;;;2.23;1.80;;;9.70;99.90;;;;;;5071972;28;20425;-79
2021/04/12 11:22:40;;;;;;;2.30;2.10;;;9.80;99.90;;;;;;4993472;28;20457;-78
2021/04/12 11:25:13;;;;;;;2.00;1.80;;;10.70;99.90;;;;;;4990557;28;20440;-77
2021/04/12 11:27:58;;;;;;;2.30;1.47;;;11.60;99.90;;;;;;5031803;28;20560;-78
2021/04/12 11:30:27;;;;;;;2.93;1.93;;;12.40;99.90;;;;;;5073133;28;20452;-78
2021/04/12 11:32:55;;;;;;;5.37;2.47;;;13.40;99.90;;;;;;5077229;28;20416;-78
2021/04/12 11:35:33;;;;;;;3.10;1.90;;;13.60;99.90;;;;;;5079971;28;20920;-79
2021/04/12 11:38:03;;;;;;;2.10;1.90;;;14.60;99.90;;;;;;5095430;28;20462;-79
2021/04/12 11:40:36;;;;;;;2.10;1.90;;;14.60;99.90;;;;;;5090399;28;20576;-79
2021/04/12 11:43:10;;;;;;;3.93;2.00;;;13.60;99.40;;;;;;5086412;28;20479;-77
2021/04/12 11:45:51;;;;;;;2.23;2.03;;;12.50;99.90;;;;;;5077010;28;20883;-79
2021/04/12 11:48:29;;;;;;;2.50;1.67;;;11.50;99.90;;;;;;5076022;28;20460;-78
2021/04/12 11:51:07;;;;;;;1.53;1.43;;;12.00;99.90;;;;;;5063068;28;20483;-77
2021/04/12 11:53:49;;;;;;;4.93;1.13;;;12.70;99.90;;;;;;5091079;28;20969;-76
2021/04/12 11:56:30;;;;;;;1.63;1.10;;;12.40;99.90;;;;;;5089750;28;20879;-77
2021/04/12 11:59:27;;;;;;;3.77;1.30;;;11.40;87.40;;;;;;5082066;28;20427;-78
2021/04/12 12:02:01;;;;;;;2.90;2.40;;;12.00;99.90;;;;;;5036106;28;20444;-78
2021/04/12 12:04:40;;;;;;;4.00;2.17;;;12.60;99.90;;;;;;5074731;28;20412;-77
2021/04/12 12:07:35;;;;;;;8.57;1.57;;;12.80;99.90;;;;;;5075494;28;20424;-78
2021/04/12 12:10:06;;;;;;;5.10;2.07;;;13.30;99.90;;;;;;5071768;28;20417;-76
2021/04/12 12:12:46;;;;;;;5.27;3.43;;;13.40;99.90;;;;;;5062723;28;20413;-77
2021/04/12 12:15:32;;;;;;;3.07;2.50;;;13.90;99.90;;;;;;5054167;28;20447;-77
2021/04/12 12:18:04;;;;;;;2.90;1.90;;;13.90;99.90;;;;;;5053528;28;20779;-76
2021/04/12 12:20:49;;;;;;;2.30;1.90;;;13.30;99.90;;;;;;5067605;28;20454;-77
2021/04/12 12:23:31;;;;;;;3.20;1.60;;;13.40;99.90;;;;;;5070458;28;20448;-77
2021/04/12 12:26:00;;;;;;;1.87;1.77;;;13.20;99.90;;;;;;5069975;28;20481;-77
2021/04/12 12:28:59;;;;;;;2.33;1.50;;;13.40;99.90;;;;;;5057123;28;20460;-76
2021/04/12 12:31:35;;;;;;;1.80;1.50;;;13.30;99.90;;;;;;5067645;28;20527;-77
2021/04/12 12:34:40;;;;;;;2.23;1.70;;;13.20;99.90;;;;;;5075202;28;21276;-78
2021/04/12 12:37:22;;;;;;;1.90;1.50;;;12.80;99.90;;;;;;5071145;28;20826;-79
2021/04/12 12:39:54;;;;;;;3.43;1.93;;;11.80;99.90;;;;;;5074113;28;20442;-79
2021/04/12 12:42:22;;;;;;;1.90;1.70;;;11.60;99.90;;;;;;5075437;28;20435;-79
2021/04/12 12:44:48;;;;;;;2.40;1.30;;;10.90;99.90;;;;;;5075943;28;20465;-77
2021/04/12 12:47:19;;;;;;;2.90;1.87;;;10.30;99.90;;;;;;5073110;28;20431;-77
2021/04/12 12:49:53;;;;;;;2.43;2.00;;;9.70;99.90;;;;;;5072466;28;20486;-78
2021/04/12 12:52:32;;;;;;;1.63;1.50;;;9.10;99.90;;;;;;5066842;28;20441;-78
2021/04/12 12:55:02;;;;;;;1.97;1.60;;;8.00;99.90;;;;;;5080215;28;20425;-78
2021/04/12 12:57:39;;;;;;;4.40;2.30;;;7.80;99.90;;;;;;5071665;28;20757;-78
2021/04/12 13:00:07;;;;;;;2.90;2.63;;;7.30;99.90;;;;;;5068829;28;20766;-78
2021/04/12 13:02:36;;;;;;;3.67;2.53;;;7.40;99.90;;;;;;5071821;28;20427;-79
2021/04/12 13:05:20;;;;;;;2.90;2.53;;;7.50;99.90;;;;;;5075513;28;20751;-78
2021/04/12 13:07:48;;;;;;;3.43;2.60;;;7.40;99.90;;;;;;5067964;28;20426;-79
2021/04/12 13:10:25;;;;;;;3.90;2.80;;;7.40;99.90;;;;;;5086699;28;20518;-79
2021/04/12 13:12:53;;;;;;;4.00;3.60;;;8.10;99.90;;;;;;5090935;28;20457;-77
2021/04/12 13:15:34;;;;;;;4.63;2.83;;;8.80;99.90;;;;;;5074972;28;20412;-77
2021/04/12 13:18:11;;;;;;;4.93;2.27;;;9.60;99.90;;;;;;5056159;28;20428;-77
2021/04/12 13:20:45;;;;;;;2.30;2.10;;;10.00;99.90;;;;;;5073327;28;20473;-77
2021/04/12 13:23:16;;;;;;;4.03;2.43;;;9.90;99.90;;;;;;5078918;28;20458;-78
2021/04/12 13:25:45;;;;;;;3.10;2.43;;;10.20;99.90;;;;;;5074790;28;20413;-79
2021/04/12 13:28:32;;;;;;;2.80;2.10;;;10.40;99.90;;;;;;5088539;28;20543;-77
2021/04/12 13:31:00;;;;;;;2.00;1.90;;;10.40;99.90;;;;;;5074660;28;20440;-78
2021/04/12 13:33:35;;;;;;;5.17;2.03;;;10.20;99.90;;;;;;5075398;28;20455;-77
2021/04/12 13:36:07;;;;;;;2.73;2.10;;;10.50;99.90;;;;;;5074536;28;20427;-77
2021/04/12 13:38:35;;;;;;;2.47;2.27;;;11.10;99.90;;;;;;5078161;28;20423;-77
2021/04/12 13:41:10;;;;;;;4.13;2.27;;;11.50;99.90;;;;;;5093573;28;20944;-76
2021/04/12 13:43:42;;;;;;;2.03;1.90;;;12.00;99.90;;;;;;5078075;28;20455;-78
2021/04/12 13:46:13;;;;;;;3.30;2.27;;;12.40;99.90;;;;;;5098146;28;20446;-78
2021/04/12 13:48:45;;;;;;;3.23;2.63;;;12.60;99.90;;;;;;5096737;28;20477;-78
2021/04/12 13:51:33;;;;;;;4.70;2.53;;;12.90;99.90;;;;;;5090164;28;21052;-78
2021/04/12 13:54:14;;;;;;;3.83;2.80;;;13.50;99.90;;;;;;5070636;28;20424;-78
2021/04/12 13:56:47;;;;;;;5.40;3.10;;;13.90;99.90;;;;;;5095014;28;20427;-78
2021/04/12 13:59:22;;;;;;;2.57;2.37;;;13.20;99.90;;;;;;5091504;28;20786;-77
2021/04/12 14:01:57;;;;;;;3.00;2.73;;;13.30;99.90;;;;;;5079231;28;20448;-78
2021/04/12 14:04:27;;;;;;;2.23;2.03;;;12.90;99.90;;;;;;5075515;28;20682;-79
2021/04/12 14:06:52;;;;;;;2.53;2.33;;;12.70;99.90;;;;;;5072586;28;20420;-78
2021/04/12 14:09:35;;;;;;;1.97;1.87;;;13.00;99.90;;;;;;5071328;28;20487;-77
2021/04/12 14:12:13;;;;;;;2.40;2.03;;;13.20;99.90;;;;;;5080932;28;20194;-78
2021/04/12 14:15:00;;;;;;;2.30;2.10;;;12.30;99.90;;;;;;5092587;28;20506;-78
2021/04/12 14:17:36;;;;;;;4.10;2.43;;;12.40;99.90;;;;;;5072677;28;20439;-77
2021/04/12 14:20:21;;;;;;;2.13;1.93;;;12.00;99.90;;;;;;5065522;28;20795;-78
2021/04/12 14:22:51;;;;;;;2.27;1.90;;;12.00;99.90;;;;;;5089771;28;20412;-79